sensor_id;sensor_type;location;lat;lon;timestamp;P1;durP1;ratioP1;P2;durP2;ratioP2
17937;SDS011;16051;53.024;8.630;2022-09-09T00:01:04;7.87;;;7.10;;
17937;SDS011;16051;53.024;8.630;2022-09-09T00:05:19;8.17;;;7.17;;
17937;SDS011;16051;53.024;8.630;2022-09-09T00:09:40;8.07;;;7.27;;
17937;SDS011;16051;53.024;8.630;2022-09-09T00:13:50;8.73;;;7.83;;
17937;SDS011;16051;53.024;8.630;2022-09-09T00:18:08;9.57;;;7.70;;
17937;SDS011;16051;53.024;8.630;2022-09-09T00:22:23;10.20;;;8.70;;
17937;SDS011;16051;53.024;8.630;2022-09-09T00:26:32;10.00;;;8.43;;
17937;SDS011;16051;53.024;8.630;2022-09-09T00:30:41;8.93;;;8.03;;
17937;SDS011;16051;53.024;8.630;2022-09-09T00:34:47;11.13;;;8.73;;
17937;SDS011;16051;53.024;8.630;2022-09-09T00:38:52;9.57;;;8.23;;
17937;SDS011;16051;53.024;8.630;2022-09-09T00:43:09;10.70;;;8.57;;
17937;SDS011;16051;53.024;8.630;2022-09-09T00:47:31;9.47;;;8.47;;
17937;SDS011;16051;53.024;8.630;2022-09-09T00:51:47;10.37;;;8.70;;
17937;SDS011;16051;53.024;8.630;2022-09-09T00:56:08;8.33;;;7.53;;
17937;SDS011;16051;53.024;8.630;2022-09-09T01:00:25;9.87;;;8.87;;
17937;SDS011;16051;53.024;8.630;2022-09-09T01:04:36;11.73;;;9.00;;
17937;SDS011;16051;53.024;8.630;2022-09-09T01:13:11;9.33;;;8.43;;
17937;SDS011;16051;53.024;8.630;2022-09-09T01:17:26;9.73;;;8.17;;
17937;SDS011;16051;53.024;8.630;2022-09-09T01:21:34;10.83;;;9.10;;
17937;SDS011;16051;53.024;8.630;2022-09-09T01:26:07;9.40;;;8.37;;
17937;SDS011;16051;53.024;8.630;2022-09-09T01:30:20;10.37;;;8.80;;
17937;SDS011;16051;53.024;8.630;2022-09-09T01:34:25;9.10;;;8.20;;
17937;SDS011;16051;53.024;8.630;2022-09-09T01:38:32;9.10;;;8.20;;
17937;SDS011;16051;53.024;8.630;2022-09-09T01:42:38;10.80;;;9.23;;
17937;SDS011;16051;53.024;8.630;2022-09-09T01:46:40;9.23;;;8.33;;
17937;SDS011;16051;53.024;8.630;2022-09-09T01:50:42;8.50;;;7.70;;
17937;SDS011;16051;53.024;8.630;2022-09-09T01:54:44;8.73;;;7.03;;
17937;SDS011;16051;53.024;8.630;2022-09-09T01:58:52;9.53;;;7.23;;
17937;SDS011;16051;53.024;8.630;2022-09-09T02:03:13;8.17;;;7.37;;
17937;SDS011;16051;53.024;8.630;2022-09-09T02:07:30;8.03;;;7.23;;
17937;SDS011;16051;53.024;8.630;2022-09-09T02:11:40;9.53;;;7.90;;
17937;SDS011;16051;53.024;8.630;2022-09-09T02:15:52;8.47;;;7.10;;
17937;SDS011;16051;53.024;8.630;2022-09-09T02:20:03;7.60;;;6.80;;
17937;SDS011;16051;53.024;8.630;2022-09-09T02:24:09;8.37;;;6.53;;
17937;SDS011;16051;53.024;8.630;2022-09-09T02:28:16;7.37;;;6.23;;
17937;SDS011;16051;53.024;8.630;2022-09-09T02:32:25;7.60;;;6.70;;
17937;SDS011;16051;53.024;8.630;2022-09-09T02:41:05;8.13;;;6.57;;
17937;SDS011;16051;53.024;8.630;2022-09-09T02:45:08;8.30;;;6.50;;
17937;SDS011;16051;53.024;8.630;2022-09-09T02:49:15;7.30;;;6.53;;
17937;SDS011;16051;53.024;8.630;2022-09-09T02:53:28;7.50;;;6.70;;
17937;SDS011;16051;53.024;8.630;2022-09-09T02:57:40;7.23;;;6.20;;
17937;SDS011;16051;53.024;8.630;2022-09-09T03:01:56;7.17;;;6.47;;
17937;SDS011;16051;53.024;8.630;2022-09-09T03:06:00;7.37;;;5.87;;
17937;SDS011;16051;53.024;8.630;2022-09-09T03:10:02;6.27;;;5.40;;
17937;SDS011;16051;53.024;8.630;2022-09-09T03:14:05;7.13;;;6.30;;
17937;SDS011;16051;53.024;8.630;2022-09-09T03:18:08;7.33;;;6.50;;
17937;SDS011;16051;53.024;8.630;2022-09-09T03:22:12;6.67;;;5.97;;
17937;SDS011;16051;53.024;8.630;2022-09-09T03:26:24;7.40;;;6.40;;
17937;SDS011;16051;53.024;8.630;2022-09-09T03:30:27;6.27;;;5.50;;
17937;SDS011;16051;53.024;8.630;2022-09-09T03:34:29;5.80;;;5.30;;
17937;SDS011;16051;53.024;8.630;2022-09-09T03:38:32;6.70;;;5.93;;
17937;SDS011;16051;53.024;8.630;2022-09-09T03:42:35;8.67;;;6.10;;
17937;SDS011;16051;53.024;8.630;2022-09-09T03:46:38;8.23;;;6.87;;
17937;SDS011;16051;53.024;8.630;2022-09-09T03:50:43;7.00;;;6.03;;
17937;SDS011;16051;53.024;8.630;2022-09-09T03:54:47;7.07;;;5.30;;
17937;SDS011;16051;53.024;8.630;2022-09-09T03:58:50;6.07;;;5.47;;
17937;SDS011;16051;53.024;8.630;2022-09-09T04:02:52;6.97;;;5.90;;
17937;SDS011;16051;53.024;8.630;2022-09-09T04:06:57;6.50;;;5.50;;
17937;SDS011;16051;53.024;8.630;2022-09-09T04:11:01;8.50;;;5.77;;
17937;SDS011;16051;53.024;8.630;2022-09-09T04:15:09;6.73;;;5.20;;
17937;SDS011;16051;53.024;8.630;2022-09-09T04:19:12;6.80;;;6.10;;
17937;SDS011;16051;53.024;8.630;2022-09-09T04:23:14;5.70;;;5.20;;
17937;SDS011;16051;53.024;8.630;2022-09-09T04:27:19;6.30;;;5.70;;
17937;SDS011;16051;53.024;8.630;2022-09-09T04:31:21;6.90;;;5.40;;
17937;SDS011;16051;53.024;8.630;2022-09-09T04:35:24;7.93;;;5.93;;
17937;SDS011;16051;53.024;8.630;2022-09-09T04:39:27;8.33;;;6.07;;
17937;SDS011;16051;53.024;8.630;2022-09-09T04:43:30;5.60;;;5.03;;
17937;SDS011;16051;53.024;8.630;2022-09-09T04:47:45;6.97;;;5.07;;
17937;SDS011;16051;53.024;8.630;2022-09-09T04:51:48;6.00;;;5.40;;
17937;SDS011;16051;53.024;8.630;2022-09-09T04:55:50;6.60;;;5.30;;
17937;SDS011;16051;53.024;8.630;2022-09-09T04:59:54;6.77;;;5.43;;
17937;SDS011;16051;53.024;8.630;2022-09-09T05:03:56;7.83;;;4.60;;
17937;SDS011;16051;53.024;8.630;2022-09-09T05:08:00;5.90;;;4.90;;
17937;SDS011;16051;53.024;8.630;2022-09-09T05:16:43;5.93;;;4.33;;
17937;SDS011;16051;53.024;8.630;2022-09-09T05:20:47;7.07;;;4.50;;
17937;SDS011;16051;53.024;8.630;2022-09-09T05:24:49;5.60;;;4.53;;
17937;SDS011;16051;53.024;8.630;2022-09-09T05:28:51;6.37;;;4.93;;
17937;SDS011;16051;53.024;8.630;2022-09-09T05:32:56;4.93;;;4.13;;
17937;SDS011;16051;53.024;8.630;2022-09-09T05:37:10;5.70;;;4.47;;
17937;SDS011;16051;53.024;8.630;2022-09-09T05:41:13;5.40;;;4.43;;
17937;SDS011;16051;53.024;8.630;2022-09-09T05:45:17;5.87;;;4.10;;
17937;SDS011;16051;53.024;8.630;2022-09-09T05:49:21;7.57;;;4.70;;
17937;SDS011;16051;53.024;8.630;2022-09-09T05:53:23;5.10;;;4.27;;
17937;SDS011;16051;53.024;8.630;2022-09-09T05:57:25;5.87;;;4.77;;
17937;SDS011;16051;53.024;8.630;2022-09-09T06:06:15;5.93;;;4.80;;
17937;SDS011;16051;53.024;8.630;2022-09-09T06:10:20;5.03;;;4.53;;
17937;SDS011;16051;53.024;8.630;2022-09-09T06:19:14;5.27;;;4.70;;
17937;SDS011;16051;53.024;8.630;2022-09-09T06:23:18;6.37;;;4.73;;
17937;SDS011;16051;53.024;8.630;2022-09-09T06:27:20;5.53;;;4.30;;
17937;SDS011;16051;53.024;8.630;2022-09-09T06:31:23;6.97;;;5.53;;
17937;SDS011;16051;53.024;8.630;2022-09-09T06:35:30;6.47;;;5.57;;
17937;SDS011;16051;53.024;8.630;2022-09-09T06:39:33;5.13;;;4.63;;
17937;SDS011;16051;53.024;8.630;2022-09-09T06:43:35;5.43;;;4.90;;
17937;SDS011;16051;53.024;8.630;2022-09-09T06:47:38;7.47;;;4.97;;
17937;SDS011;16051;53.024;8.630;2022-09-09T06:51:41;5.73;;;4.20;;
17937;SDS011;16051;53.024;8.630;2022-09-09T06:55:45;6.60;;;5.20;;
17937;SDS011;16051;53.024;8.630;2022-09-09T06:59:48;7.43;;;4.80;;
17937;SDS011;16051;53.024;8.630;2022-09-09T07:03:51;6.53;;;5.27;;
17937;SDS011;16051;53.024;8.630;2022-09-09T07:07:54;5.27;;;4.57;;
17937;SDS011;16051;53.024;8.630;2022-09-09T07:11:58;5.77;;;5.13;;
17937;SDS011;16051;53.024;8.630;2022-09-09T07:20:24;8.47;;;5.97;;
17937;SDS011;16051;53.024;8.630;2022-09-09T07:24:26;7.73;;;6.20;;
17937;SDS011;16051;53.024;8.630;2022-09-09T07:28:31;7.40;;;6.00;;
17937;SDS011;16051;53.024;8.630;2022-09-09T07:32:34;6.40;;;5.30;;
17937;SDS011;16051;53.024;8.630;2022-09-09T07:36:37;6.83;;;4.93;;
17937;SDS011;16051;53.024;8.630;2022-09-09T07:40:52;7.37;;;5.63;;
17937;SDS011;16051;53.024;8.630;2022-09-09T07:44:56;7.30;;;4.93;;
17937;SDS011;16051;53.024;8.630;2022-09-09T07:49:01;8.97;;;5.43;;
17937;SDS011;16051;53.024;8.630;2022-09-09T07:57:15;5.43;;;4.10;;
17937;SDS011;16051;53.024;8.630;2022-09-09T08:01:22;7.77;;;4.83;;
17937;SDS011;16051;53.024;8.630;2022-09-09T08:05:35;6.30;;;4.50;;
17937;SDS011;16051;53.024;8.630;2022-09-09T08:09:39;7.17;;;5.07;;
17937;SDS011;16051;53.024;8.630;2022-09-09T08:13:43;6.07;;;4.23;;
17937;SDS011;16051;53.024;8.630;2022-09-09T08:17:53;5.77;;;4.20;;
17937;SDS011;16051;53.024;8.630;2022-09-09T08:22:10;5.27;;;4.20;;
17937;SDS011;16051;53.024;8.630;2022-09-09T08:26:13;8.03;;;5.10;;
17937;SDS011;16051;53.024;8.630;2022-09-09T08:30:17;5.20;;;4.10;;
17937;SDS011;16051;53.024;8.630;2022-09-09T08:38:30;4.60;;;3.93;;
17937;SDS011;16051;53.024;8.630;2022-09-09T08:46:51;6.90;;;5.10;;
17937;SDS011;16051;53.024;8.630;2022-09-09T08:51:12;7.00;;;4.23;;
17937;SDS011;16051;53.024;8.630;2022-09-09T08:55:18;5.70;;;5.13;;
17937;SDS011;16051;53.024;8.630;2022-09-09T08:59:27;3.93;;;3.37;;
17937;SDS011;16051;53.024;8.630;2022-09-09T09:03:40;4.67;;;3.77;;
17937;SDS011;16051;53.024;8.630;2022-09-09T09:07:56;4.07;;;2.83;;
17937;SDS011;16051;53.024;8.630;2022-09-09T09:12:10;4.83;;;2.73;;
17937;SDS011;16051;53.024;8.630;2022-09-09T09:16:31;4.20;;;2.60;;
17937;SDS011;16051;53.024;8.630;2022-09-09T09:20:38;6.03;;;2.77;;
17937;SDS011;16051;53.024;8.630;2022-09-09T09:25:02;5.27;;;2.57;;
17937;SDS011;16051;53.024;8.630;2022-09-09T09:29:17;7.43;;;2.70;;
17937;SDS011;16051;53.024;8.630;2022-09-09T09:33:23;6.10;;;2.10;;
17937;SDS011;16051;53.024;8.630;2022-09-09T09:37:33;5.13;;;2.40;;
17937;SDS011;16051;53.024;8.630;2022-09-09T09:41:39;5.93;;;2.33;;
17937;SDS011;16051;53.024;8.630;2022-09-09T09:45:44;5.03;;;2.10;;
17937;SDS011;16051;53.024;8.630;2022-09-09T09:49:52;5.47;;;2.73;;
17937;SDS011;16051;53.024;8.630;2022-09-09T09:54:14;3.77;;;2.60;;
17937;SDS011;16051;53.024;8.630;2022-09-09T09:58:26;5.00;;;2.60;;
17937;SDS011;16051;53.024;8.630;2022-09-09T10:02:37;4.93;;;3.30;;
17937;SDS011;16051;53.024;8.630;2022-09-09T10:06:43;3.70;;;2.90;;
17937;SDS011;16051;53.024;8.630;2022-09-09T10:11:03;8.57;;;3.30;;
17937;SDS011;16051;53.024;8.630;2022-09-09T10:15:32;6.17;;;3.33;;
17937;SDS011;16051;53.024;8.630;2022-09-09T10:19:48;3.77;;;2.90;;
17937;SDS011;16051;53.024;8.630;2022-09-09T10:24:20;5.17;;;3.33;;
17937;SDS011;16051;53.024;8.630;2022-09-09T10:33:28;5.97;;;2.83;;
17937;SDS011;16051;53.024;8.630;2022-09-09T10:37:52;5.27;;;2.60;;
17937;SDS011;16051;53.024;8.630;2022-09-09T10:42:15;3.57;;;2.60;;
17937;SDS011;16051;53.024;8.630;2022-09-09T10:46:29;6.83;;;2.50;;
17937;SDS011;16051;53.024;8.630;2022-09-09T10:50:47;5.20;;;3.00;;
17937;SDS011;16051;53.024;8.630;2022-09-09T10:54:59;3.17;;;2.17;;
17937;SDS011;16051;53.024;8.630;2022-09-09T10:59:12;4.40;;;2.37;;
17937;SDS011;16051;53.024;8.630;2022-09-09T11:03:23;3.40;;;2.67;;
17937;SDS011;16051;53.024;8.630;2022-09-09T11:07:34;4.53;;;3.00;;
17937;SDS011;16051;53.024;8.630;2022-09-09T11:11:44;3.57;;;3.00;;
17937;SDS011;16051;53.024;8.630;2022-09-09T11:15:54;5.60;;;3.50;;
17937;SDS011;16051;53.024;8.630;2022-09-09T11:20:06;3.73;;;3.20;;
17937;SDS011;16051;53.024;8.630;2022-09-09T11:24:15;4.23;;;3.83;;
17937;SDS011;16051;53.024;8.630;2022-09-09T11:28:28;4.53;;;3.63;;
17937;SDS011;16051;53.024;8.630;2022-09-09T11:37:42;5.27;;;3.63;;
17937;SDS011;16051;53.024;8.630;2022-09-09T11:42:27;3.43;;;3.13;;
17937;SDS011;16051;53.024;8.630;2022-09-09T11:46:32;3.63;;;3.07;;
17937;SDS011;16051;53.024;8.630;2022-09-09T11:50:39;12.47;;;11.70;;
17937;SDS011;16051;53.024;8.630;2022-09-09T11:54:46;5.33;;;3.53;;
17937;SDS011;16051;53.024;8.630;2022-09-09T11:58:55;5.73;;;2.93;;
17937;SDS011;16051;53.024;8.630;2022-09-09T12:03:09;5.20;;;3.10;;
17937;SDS011;16051;53.024;8.630;2022-09-09T12:07:47;3.83;;;2.37;;
17937;SDS011;16051;53.024;8.630;2022-09-09T12:12:16;2.87;;;1.60;;
17937;SDS011;16051;53.024;8.630;2022-09-09T12:16:34;2.50;;;1.30;;
17937;SDS011;16051;53.024;8.630;2022-09-09T12:20:40;1.90;;;1.47;;
17937;SDS011;16051;53.024;8.630;2022-09-09T12:25:02;1.80;;;1.57;;
17937;SDS011;16051;53.024;8.630;2022-09-09T12:29:28;3.30;;;2.03;;
17937;SDS011;16051;53.024;8.630;2022-09-09T12:33:44;3.50;;;2.30;;
17937;SDS011;16051;53.024;8.630;2022-09-09T12:37:48;4.07;;;2.27;;
17937;SDS011;16051;53.024;8.630;2022-09-09T12:41:57;1.90;;;1.73;;
17937;SDS011;16051;53.024;8.630;2022-09-09T12:46:00;2.90;;;2.27;;
17937;SDS011;16051;53.024;8.630;2022-09-09T12:50:11;3.67;;;1.97;;
17937;SDS011;16051;53.024;8.630;2022-09-09T12:54:20;3.70;;;2.33;;
17937;SDS011;16051;53.024;8.630;2022-09-09T12:58:23;2.37;;;1.73;;
17937;SDS011;16051;53.024;8.630;2022-09-09T13:06:36;2.73;;;2.20;;
17937;SDS011;16051;53.024;8.630;2022-09-09T13:10:39;3.40;;;2.40;;
17937;SDS011;16051;53.024;8.630;2022-09-09T13:14:48;3.23;;;2.00;;
17937;SDS011;16051;53.024;8.630;2022-09-09T13:18:54;2.33;;;2.07;;
17937;SDS011;16051;53.024;8.630;2022-09-09T13:22:58;2.10;;;1.90;;
17937;SDS011;16051;53.024;8.630;2022-09-09T13:27:03;3.10;;;2.43;;
17937;SDS011;16051;53.024;8.630;2022-09-09T13:31:30;3.87;;;3.17;;
17937;SDS011;16051;53.024;8.630;2022-09-09T13:35:45;3.37;;;3.00;;
17937;SDS011;16051;53.024;8.630;2022-09-09T13:39:51;3.23;;;2.93;;
17937;SDS011;16051;53.024;8.630;2022-09-09T13:43:54;3.80;;;3.03;;
17937;SDS011;16051;53.024;8.630;2022-09-09T13:47:58;4.63;;;2.83;;
17937;SDS011;16051;53.024;8.630;2022-09-09T13:56:34;3.27;;;2.80;;
17937;SDS011;16051;53.024;8.630;2022-09-09T14:00:38;3.53;;;2.77;;
17937;SDS011;16051;53.024;8.630;2022-09-09T14:04:42;8.00;;;6.03;;
17937;SDS011;16051;53.024;8.630;2022-09-09T14:08:44;9.60;;;3.70;;
17937;SDS011;16051;53.024;8.630;2022-09-09T14:12:46;6.50;;;3.60;;
17937;SDS011;16051;53.024;8.630;2022-09-09T14:16:49;7.17;;;3.80;;
17937;SDS011;16051;53.024;8.630;2022-09-09T14:20:52;8.37;;;4.23;;
17937;SDS011;16051;53.024;8.630;2022-09-09T14:24:54;7.70;;;4.37;;
17937;SDS011;16051;53.024;8.630;2022-09-09T14:28:57;4.23;;;3.70;;
17937;SDS011;16051;53.024;8.630;2022-09-09T14:33:14;4.40;;;3.40;;
17937;SDS011;16051;53.024;8.630;2022-09-09T14:37:24;5.87;;;4.00;;
17937;SDS011;16051;53.024;8.630;2022-09-09T14:41:28;6.33;;;4.17;;
17937;SDS011;16051;53.024;8.630;2022-09-09T14:45:30;5.27;;;4.10;;
17937;SDS011;16051;53.024;8.630;2022-09-09T14:53:41;6.33;;;4.33;;
17937;SDS011;16051;53.024;8.630;2022-09-09T14:57:44;5.30;;;4.80;;
17937;SDS011;16051;53.024;8.630;2022-09-09T15:01:46;6.17;;;4.93;;
17937;SDS011;16051;53.024;8.630;2022-09-09T15:05:49;7.47;;;4.83;;
17937;SDS011;16051;53.024;8.630;2022-09-09T15:09:54;5.77;;;4.07;;
17937;SDS011;16051;53.024;8.630;2022-09-09T15:13:57;7.83;;;4.83;;
17937;SDS011;16051;53.024;8.630;2022-09-09T15:17:59;5.63;;;4.00;;
17937;SDS011;16051;53.024;8.630;2022-09-09T15:22:01;6.83;;;4.10;;
17937;SDS011;16051;53.024;8.630;2022-09-09T15:26:06;5.43;;;4.63;;
17937;SDS011;16051;53.024;8.630;2022-09-09T15:30:10;5.97;;;4.63;;
17937;SDS011;16051;53.024;8.630;2022-09-09T15:34:13;5.00;;;3.67;;
17937;SDS011;16051;53.024;8.630;2022-09-09T15:38:15;6.80;;;4.20;;
17937;SDS011;16051;53.024;8.630;2022-09-09T15:42:20;5.57;;;3.73;;
17937;SDS011;16051;53.024;8.630;2022-09-09T15:46:34;7.70;;;3.47;;
17937;SDS011;16051;53.024;8.630;2022-09-09T15:50:40;6.07;;;3.40;;
17937;SDS011;16051;53.024;8.630;2022-09-09T15:54:42;5.97;;;3.90;;
17937;SDS011;16051;53.024;8.630;2022-09-09T15:58:47;6.00;;;3.87;;
17937;SDS011;16051;53.024;8.630;2022-09-09T16:02:49;5.07;;;4.03;;
17937;SDS011;16051;53.024;8.630;2022-09-09T16:06:59;4.10;;;3.50;;
17937;SDS011;16051;53.024;8.630;2022-09-09T16:11:16;6.23;;;4.10;;
17937;SDS011;16051;53.024;8.630;2022-09-09T16:15:22;6.73;;;3.13;;
17937;SDS011;16051;53.024;8.630;2022-09-09T16:19:25;3.13;;;2.80;;
17937;SDS011;16051;53.024;8.630;2022-09-09T16:23:27;3.93;;;2.97;;
17937;SDS011;16051;53.024;8.630;2022-09-09T16:27:35;2.50;;;2.13;;
17937;SDS011;16051;53.024;8.630;2022-09-09T16:31:39;4.10;;;2.53;;
17937;SDS011;16051;53.024;8.630;2022-09-09T16:35:42;4.27;;;2.30;;
17937;SDS011;16051;53.024;8.630;2022-09-09T16:39:45;4.60;;;2.37;;
17937;SDS011;16051;53.024;8.630;2022-09-09T16:43:51;3.83;;;2.23;;
17937;SDS011;16051;53.024;8.630;2022-09-09T16:48:00;2.63;;;2.03;;
17937;SDS011;16051;53.024;8.630;2022-09-09T16:52:02;4.47;;;2.80;;
17937;SDS011;16051;53.024;8.630;2022-09-09T16:56:06;3.20;;;2.20;;
17937;SDS011;16051;53.024;8.630;2022-09-09T17:00:10;3.07;;;2.67;;
17937;SDS011;16051;53.024;8.630;2022-09-09T17:04:15;2.80;;;2.60;;
17937;SDS011;16051;53.024;8.630;2022-09-09T17:08:21;3.73;;;1.90;;
17937;SDS011;16051;53.024;8.630;2022-09-09T17:12:23;4.80;;;1.93;;
17937;SDS011;16051;53.024;8.630;2022-09-09T17:20:38;1.77;;;1.30;;
17937;SDS011;16051;53.024;8.630;2022-09-09T17:24:42;1.57;;;1.47;;
17937;SDS011;16051;53.024;8.630;2022-09-09T17:28:53;2.70;;;1.90;;
17937;SDS011;16051;53.024;8.630;2022-09-09T17:32:58;2.13;;;1.60;;
17937;SDS011;16051;53.024;8.630;2022-09-09T17:41:23;2.10;;;1.90;;
17937;SDS011;16051;53.024;8.630;2022-09-09T17:45:30;3.27;;;2.00;;
17937;SDS011;16051;53.024;8.630;2022-09-09T17:49:33;2.60;;;2.07;;
17937;SDS011;16051;53.024;8.630;2022-09-09T17:53:37;2.50;;;2.30;;
17937;SDS011;16051;53.024;8.630;2022-09-09T18:02:08;3.13;;;2.60;;
17937;SDS011;16051;53.024;8.630;2022-09-09T18:06:12;4.63;;;3.20;;
17937;SDS011;16051;53.024;8.630;2022-09-09T18:10:18;3.97;;;2.97;;
17937;SDS011;16051;53.024;8.630;2022-09-09T18:14:21;3.37;;;2.90;;
17937;SDS011;16051;53.024;8.630;2022-09-09T18:18:26;4.07;;;2.97;;
17937;SDS011;16051;53.024;8.630;2022-09-09T18:22:30;5.23;;;3.10;;
17937;SDS011;16051;53.024;8.630;2022-09-09T18:26:36;5.23;;;4.00;;
17937;SDS011;16051;53.024;8.630;2022-09-09T18:30:41;3.83;;;3.40;;
17937;SDS011;16051;53.024;8.630;2022-09-09T18:34:43;5.27;;;3.73;;
17937;SDS011;16051;53.024;8.630;2022-09-09T18:38:46;6.50;;;3.73;;
17937;SDS011;16051;53.024;8.630;2022-09-09T18:42:50;5.80;;;4.00;;
17937;SDS011;16051;53.024;8.630;2022-09-09T18:46:52;5.87;;;4.37;;
17937;SDS011;16051;53.024;8.630;2022-09-09T18:50:55;5.73;;;4.20;;
17937;SDS011;16051;53.024;8.630;2022-09-09T18:55:13;4.77;;;4.07;;
17937;SDS011;16051;53.024;8.630;2022-09-09T18:59:17;6.00;;;3.93;;
17937;SDS011;16051;53.024;8.630;2022-09-09T19:03:23;4.93;;;3.50;;
17937;SDS011;16051;53.024;8.630;2022-09-09T19:07:26;6.50;;;3.93;;
17937;SDS011;16051;53.024;8.630;2022-09-09T19:11:28;4.40;;;3.40;;
17937;SDS011;16051;53.024;8.630;2022-09-09T19:15:38;4.10;;;3.57;;
17937;SDS011;16051;53.024;8.630;2022-09-09T19:19:40;4.77;;;3.90;;
17937;SDS011;16051;53.024;8.630;2022-09-09T19:23:43;5.73;;;4.10;;
17937;SDS011;16051;53.024;8.630;2022-09-09T19:27:46;3.70;;;3.40;;
17937;SDS011;16051;53.024;8.630;2022-09-09T19:31:51;3.67;;;3.33;;
17937;SDS011;16051;53.024;8.630;2022-09-09T19:35:57;4.40;;;3.73;;
17937;SDS011;16051;53.024;8.630;2022-09-09T19:40:01;3.93;;;3.23;;
17937;SDS011;16051;53.024;8.630;2022-09-09T19:44:12;4.57;;;3.70;;
17937;SDS011;16051;53.024;8.630;2022-09-09T19:48:17;5.53;;;3.37;;
17937;SDS011;16051;53.024;8.630;2022-09-09T19:52:20;4.23;;;3.47;;
17937;SDS011;16051;53.024;8.630;2022-09-09T19:56:23;4.07;;;3.70;;
17937;SDS011;16051;53.024;8.630;2022-09-09T20:00:27;4.17;;;3.03;;
17937;SDS011;16051;53.024;8.630;2022-09-09T20:04:30;3.83;;;3.53;;
17937;SDS011;16051;53.024;8.630;2022-09-09T20:08:34;4.63;;;3.23;;
17937;SDS011;16051;53.024;8.630;2022-09-09T20:12:38;4.90;;;3.20;;
17937;SDS011;16051;53.024;8.630;2022-09-09T20:20:57;4.87;;;3.80;;
17937;SDS011;16051;53.024;8.630;2022-09-09T20:25:00;3.70;;;3.37;;
17937;SDS011;16051;53.024;8.630;2022-09-09T20:29:03;3.77;;;3.47;;
17937;SDS011;16051;53.024;8.630;2022-09-09T20:33:08;3.83;;;2.97;;
17937;SDS011;16051;53.024;8.630;2022-09-09T20:37:11;4.70;;;2.97;;
17937;SDS011;16051;53.024;8.630;2022-09-09T20:41:14;4.00;;;3.30;;
17937;SDS011;16051;53.024;8.630;2022-09-09T20:45:20;3.10;;;2.53;;
17937;SDS011;16051;53.024;8.630;2022-09-09T20:49:23;2.90;;;2.43;;
17937;SDS011;16051;53.024;8.630;2022-09-09T20:53:26;2.80;;;2.60;;
17937;SDS011;16051;53.024;8.630;2022-09-09T20:57:40;6.83;;;3.20;;
17937;SDS011;16051;53.024;8.630;2022-09-09T21:01:42;3.33;;;3.00;;
17937;SDS011;16051;53.024;8.630;2022-09-09T21:05:46;3.10;;;2.80;;
17937;SDS011;16051;53.024;8.630;2022-09-09T21:09:51;3.47;;;3.17;;
17937;SDS011;16051;53.024;8.630;2022-09-09T21:13:56;3.87;;;3.00;;
17937;SDS011;16051;53.024;8.630;2022-09-09T21:17:58;3.67;;;3.37;;
17937;SDS011;16051;53.024;8.630;2022-09-09T21:22:00;4.80;;;3.10;;
17937;SDS011;16051;53.024;8.630;2022-09-09T21:26:04;3.47;;;3.17;;
17937;SDS011;16051;53.024;8.630;2022-09-09T21:30:09;4.00;;;3.30;;
17937;SDS011;16051;53.024;8.630;2022-09-09T21:34:13;3.60;;;3.23;;
17937;SDS011;16051;53.024;8.630;2022-09-09T21:38:18;6.57;;;3.73;;
17937;SDS011;16051;53.024;8.630;2022-09-09T21:42:23;3.17;;;2.93;;
17937;SDS011;16051;53.024;8.630;2022-09-09T21:46:25;4.47;;;4.07;;
17937;SDS011;16051;53.024;8.630;2022-09-09T21:50:28;4.53;;;3.57;;
17937;SDS011;16051;53.024;8.630;2022-09-09T21:54:30;4.67;;;3.70;;
17937;SDS011;16051;53.024;8.630;2022-09-09T21:58:34;3.43;;;3.13;;
17937;SDS011;16051;53.024;8.630;2022-09-09T22:02:37;4.20;;;3.20;;
17937;SDS011;16051;53.024;8.630;2022-09-09T22:06:50;5.23;;;4.20;;
17937;SDS011;16051;53.024;8.630;2022-09-09T22:10:52;4.60;;;4.00;;
17937;SDS011;16051;53.024;8.630;2022-09-09T22:14:56;5.80;;;3.70;;
17937;SDS011;16051;53.024;8.630;2022-09-09T22:18:58;4.23;;;3.93;;
17937;SDS011;16051;53.024;8.630;2022-09-09T22:23:01;4.57;;;4.17;;
17937;SDS011;16051;53.024;8.630;2022-09-09T22:27:04;5.10;;;3.73;;
17937;SDS011;16051;53.024;8.630;2022-09-09T22:31:07;5.30;;;4.30;;
17937;SDS011;16051;53.024;8.630;2022-09-09T22:35:22;4.47;;;3.60;;
17937;SDS011;16051;53.024;8.630;2022-09-09T22:39:25;7.80;;;4.83;;
17937;SDS011;16051;53.024;8.630;2022-09-09T22:43:28;4.93;;;3.97;;
17937;SDS011;16051;53.024;8.630;2022-09-09T22:47:33;3.80;;;3.10;;
17937;SDS011;16051;53.024;8.630;2022-09-09T22:51:37;6.87;;;3.80;;
17937;SDS011;16051;53.024;8.630;2022-09-09T22:55:39;4.33;;;3.50;;
17937;SDS011;16051;53.024;8.630;2022-09-09T22:59:41;3.70;;;3.40;;
17937;SDS011;16051;53.024;8.630;2022-09-09T23:03:46;3.30;;;2.93;;
17937;SDS011;16051;53.024;8.630;2022-09-09T23:07:49;4.27;;;3.30;;
17937;SDS011;16051;53.024;8.630;2022-09-09T23:11:52;3.90;;;3.57;;
17937;SDS011;16051;53.024;8.630;2022-09-09T23:20:38;3.40;;;3.20;;
17937;SDS011;16051;53.024;8.630;2022-09-09T23:24:40;3.60;;;3.30;;
17937;SDS011;16051;53.024;8.630;2022-09-09T23:28:43;4.67;;;3.63;;
17937;SDS011;16051;53.024;8.630;2022-09-09T23:32:47;4.03;;;3.63;;
17937;SDS011;16051;53.024;8.630;2022-09-09T23:36:51;4.23;;;3.10;;
17937;SDS011;16051;53.024;8.630;2022-09-09T23:40:53;4.00;;;2.90;;
17937;SDS011;16051;53.024;8.630;2022-09-09T23:49:31;3.17;;;2.40;;
17937;SDS011;16051;53.024;8.630;2022-09-09T23:53:37;4.63;;;2.93;;
17937;SDS011;16051;53.024;8.630;2022-09-09T23:57:53;3.20;;;2.67;;
